createdAt,value
2023-02-22T00:00:46.208Z,10.15
2023-02-22T00:03:15.481Z,9.45
2023-02-22T00:05:46.937Z,10.10
2023-02-22T00:08:14.572Z,8.85
2023-02-22T00:10:40.920Z,10.23
2023-02-22T00:13:08.102Z,10.13
2023-02-22T00:15:35.031Z,9.82
2023-02-22T00:18:01.540Z,9.07
2023-02-22T00:20:28.102Z,8.57
2023-02-22T00:22:54.450Z,9.02
2023-02-22T00:25:23.150Z,8.88
2023-02-22T00:27:51.642Z,9.05
2023-02-22T00:30:22.702Z,9.18
2023-02-22T00:32:49.862Z,8.32
2023-02-22T00:35:17.353Z,9.88
2023-02-22T00:37:43.909Z,9.07
2023-02-22T00:40:11.136Z,9.00
2023-02-22T00:42:37.543Z,10.25
2023-02-22T00:45:04.968Z,9.95
2023-02-22T00:47:31.534Z,10.50
2023-02-22T00:49:57.822Z,9.32
2023-02-22T00:52:24.270Z,8.15
2023-02-22T00:54:50.503Z,9.63
2023-02-22T00:57:18.510Z,9.32
2023-02-22T00:59:44.852Z,8.57
2023-02-22T01:02:11.232Z,7.20
2023-02-22T01:04:37.724Z,8.55
2023-02-22T01:07:04.511Z,8.77
2023-02-22T01:09:30.844Z,9.23
2023-02-22T01:11:57.541Z,8.32
2023-02-22T01:14:26.602Z,7.70
2023-02-22T01:16:54.316Z,8.63
2023-02-22T01:19:21.889Z,9.10
2023-02-22T01:21:48.824Z,8.35
2023-02-22T01:24:16.361Z,10.55
2023-02-22T01:26:52.662Z,8.63
2023-02-22T01:29:21.054Z,7.10
2023-02-22T01:31:54.643Z,7.43
2023-02-22T01:34:22.045Z,8.18
2023-02-22T01:36:48.368Z,8.65
2023-02-22T01:39:16.186Z,8.93
2023-02-22T01:41:42.437Z,7.93
2023-02-22T01:44:20.844Z,8.45
2023-02-22T01:46:47.072Z,8.43
2023-02-22T01:49:15.050Z,9.02
2023-02-22T01:51:44.789Z,8.35
2023-02-22T01:54:13.893Z,8.85
2023-02-22T01:56:41.912Z,8.60
2023-02-22T01:59:10.469Z,8.75
2023-02-22T02:01:38.013Z,8.52
2023-02-22T02:04:07.549Z,8.80
2023-02-22T02:06:34.496Z,9.35
2023-02-22T02:09:04.388Z,9.35
2023-02-22T02:11:32.104Z,9.85
2023-02-22T02:13:58.663Z,9.00
2023-02-22T02:16:26.864Z,10.07
2023-02-22T02:18:53.413Z,11.02
2023-02-22T02:21:37.883Z,10.48
2023-02-22T02:24:22.397Z,10.60
2023-02-22T02:26:48.672Z,8.50
2023-02-22T02:29:33.217Z,10.18
2023-02-22T02:32:11.805Z,9.98
2023-02-22T02:34:38.163Z,9.38
2023-02-22T02:37:25.464Z,11.43
2023-02-22T02:39:57.470Z,9.30
2023-02-22T02:42:26.981Z,10.98
2023-02-22T02:44:54.430Z,9.98
2023-02-22T02:47:23.665Z,10.35
2023-02-22T02:49:51.947Z,10.68
2023-02-22T02:52:19.425Z,11.65
2023-02-22T02:54:46.216Z,9.68
2023-02-22T02:57:12.900Z,11.25
2023-02-22T02:59:39.290Z,9.50
2023-02-22T03:02:14.502Z,10.52
2023-02-22T03:04:48.840Z,12.30
2023-02-22T03:07:30.337Z,11.38
2023-02-22T03:10:04.040Z,9.45
2023-02-22T03:12:38.358Z,7.75
2023-02-22T03:15:07.436Z,10.63
2023-02-22T03:17:41.423Z,10.98
2023-02-22T03:20:23.840Z,11.05
2023-02-22T03:23:03.775Z,11.02
2023-02-22T03:25:36.574Z,10.40
2023-02-22T03:28:11.442Z,11.23
2023-02-22T03:30:39.569Z,11.38
2023-02-22T03:33:10.725Z,12.52
2023-02-22T03:35:56.759Z,9.82
2023-02-22T03:38:24.498Z,10.55
2023-02-22T03:40:54.353Z,11.70
2023-02-22T03:43:25.635Z,10.73
2023-02-22T03:45:52.950Z,11.77
2023-02-22T03:48:22.847Z,11.95
2023-02-22T03:50:49.896Z,12.07
2023-02-22T03:53:18.475Z,11.77
2023-02-22T03:55:45.801Z,10.88
2023-02-22T03:58:13.752Z,11.43
2023-02-22T04:00:44.372Z,9.50
2023-02-22T04:03:10.890Z,11.48
2023-02-22T04:05:37.156Z,11.23
2023-02-22T04:08:03.506Z,11.55
2023-02-22T04:10:29.773Z,9.18
2023-02-22T04:12:56.055Z,9.85
2023-02-22T04:15:23.624Z,11.80
2023-02-22T04:17:49.909Z,10.90
2023-02-22T04:20:19.789Z,12.68
2023-02-22T04:22:46.817Z,14.13
2023-02-22T04:25:13.805Z,10.43
2023-02-22T04:27:40.026Z,11.10
2023-02-22T04:30:06.513Z,12.10
2023-02-22T04:32:32.812Z,9.60
2023-02-22T04:34:59.061Z,12.45
2023-02-22T04:37:25.345Z,10.25
2023-02-22T04:39:51.699Z,11.10
2023-02-22T04:42:18.144Z,12.13
2023-02-22T04:44:44.570Z,11.93
2023-02-22T04:47:10.869Z,11.70
2023-02-22T04:49:38.988Z,10.35
2023-02-22T04:52:05.431Z,12.40
2023-02-22T04:54:31.711Z,11.07
2023-02-22T04:56:58.045Z,12.95
2023-02-22T04:59:24.405Z,11.65
2023-02-22T05:01:50.790Z,10.23
2023-02-22T05:04:17.165Z,11.38
2023-02-22T05:06:43.388Z,12.38
2023-02-22T05:09:09.649Z,11.05
2023-02-22T05:11:35.946Z,10.40
2023-02-22T05:14:02.257Z,11.38
2023-02-22T05:16:28.683Z,13.68
2023-02-22T05:18:54.921Z,14.40
2023-02-22T05:21:21.244Z,13.63
2023-02-22T05:23:47.579Z,12.05
2023-02-22T05:26:13.943Z,14.32
2023-02-22T05:28:40.248Z,13.45
2023-02-22T05:31:07.429Z,12.98
2023-02-22T05:33:33.833Z,13.57
2023-02-22T05:36:00.077Z,13.88
2023-02-22T05:38:26.384Z,12.82
2023-02-22T05:40:52.621Z,15.10
2023-02-22T05:43:18.972Z,13.32
2023-02-22T05:45:45.450Z,9.40
2023-02-22T05:48:12.909Z,14.13
2023-02-22T05:50:39.173Z,10.52
2023-02-22T05:53:05.643Z,12.27
2023-02-22T05:55:31.977Z,12.65
2023-02-22T05:57:58.260Z,9.88
2023-02-22T06:00:28.784Z,12.63
2023-02-22T06:02:55.984Z,13.70
2023-02-22T06:05:22.613Z,12.68
2023-02-22T06:07:48.883Z,13.68
2023-02-22T06:10:15.225Z,14.07
2023-02-22T06:12:41.652Z,14.80
2023-02-22T06:15:09.022Z,14.00
2023-02-22T06:17:36.288Z,15.38
2023-02-22T06:20:03.187Z,13.15
2023-02-22T06:22:29.703Z,11.90
2023-02-22T06:24:56.171Z,12.43
2023-02-22T06:27:22.461Z,16.10
2023-02-22T06:29:48.740Z,15.00
2023-02-22T06:32:15.076Z,16.10
2023-02-22T06:34:41.341Z,8.07
2023-02-22T06:37:08.190Z,11.07
2023-02-22T06:39:34.427Z,12.50
2023-02-22T06:42:00.801Z,12.93
2023-02-22T06:44:27.090Z,12.75
2023-02-22T06:46:53.388Z,12.60
2023-02-22T06:49:20.465Z,12.40
2023-02-22T06:51:47.112Z,10.82
2023-02-22T06:54:13.436Z,12.82
2023-02-22T06:56:39.766Z,13.07
2023-02-22T06:59:06.082Z,12.40
2023-02-22T07:01:32.368Z,12.38
2023-02-22T07:03:58.679Z,12.30
2023-02-22T07:06:25.026Z,13.50
2023-02-22T07:08:51.345Z,16.20
2023-02-22T07:11:18.236Z,14.65
2023-02-22T07:13:44.628Z,16.63
2023-02-22T07:16:10.897Z,15.60
2023-02-22T07:18:37.269Z,14.10
2023-02-22T07:21:03.638Z,14.60
2023-02-22T07:23:29.940Z,14.48
2023-02-22T07:25:56.708Z,14.05
2023-02-22T07:28:23.038Z,14.63
2023-02-22T07:30:49.386Z,14.80
2023-02-22T07:33:15.791Z,14.68
2023-02-22T07:35:46.493Z,13.38
2023-02-22T07:38:13.356Z,13.57
2023-02-22T07:40:39.657Z,14.55
2023-02-22T07:43:14.115Z,12.98
2023-02-22T07:45:40.475Z,14.23
2023-02-22T07:48:07.402Z,14.88
2023-02-22T07:50:34.388Z,16.10
2023-02-22T07:53:02.075Z,15.07
2023-02-22T07:55:29.138Z,14.43
2023-02-22T07:57:58.494Z,13.98
2023-02-22T08:00:31.985Z,15.77
2023-02-22T08:02:59.205Z,13.75
2023-02-22T08:05:26.985Z,13.80
2023-02-22T08:07:53.684Z,14.18
2023-02-22T08:10:22.256Z,9.23
2023-02-22T08:12:49.441Z,13.23
2023-02-22T08:15:18.221Z,10.45
2023-02-22T08:17:44.592Z,10.32
2023-02-22T08:20:10.995Z,12.85
2023-02-22T08:22:37.242Z,11.90
2023-02-22T08:25:03.540Z,11.98
2023-02-22T08:27:30.576Z,12.93
2023-02-22T08:29:56.858Z,12.38
2023-02-22T08:32:23.699Z,10.50
2023-02-22T08:34:50.121Z,10.95
2023-02-22T08:37:17.031Z,11.73
2023-02-22T08:39:43.391Z,11.90
2023-02-22T08:42:10.231Z,11.13
2023-02-22T08:44:37.280Z,10.02
2023-02-22T08:47:03.617Z,10.02
2023-02-22T08:49:29.905Z,11.45
2023-02-22T08:51:56.305Z,13.85
2023-02-22T08:54:22.751Z,13.52
2023-02-22T08:56:49.560Z,11.98
2023-02-22T08:59:16.352Z,9.50
2023-02-22T09:01:42.762Z,10.63
2023-02-22T09:04:09.304Z,12.38
2023-02-22T09:06:35.664Z,13.88
2023-02-22T09:09:02.329Z,11.15
2023-02-22T09:11:28.586Z,12.88
2023-02-22T09:13:57.208Z,12.93
2023-02-22T09:16:24.682Z,12.48
2023-02-22T09:18:50.974Z,10.05
2023-02-22T09:21:17.559Z,10.02
2023-02-22T09:23:46.274Z,10.98
2023-02-22T09:26:15.519Z,11.05
2023-02-22T09:28:41.971Z,12.90
2023-02-22T09:31:08.536Z,10.23
2023-02-22T09:33:34.819Z,11.52
2023-02-22T09:36:02.393Z,11.32
2023-02-22T09:38:30.048Z,11.70
2023-02-22T09:41:00.041Z,12.02
2023-02-22T09:43:31.645Z,11.90
2023-02-22T09:46:00.900Z,12.43
2023-02-22T09:48:27.381Z,11.60
2023-02-22T09:50:58.415Z,10.65
2023-02-22T09:53:41.654Z,11.90
2023-02-22T09:56:12.027Z,10.52
2023-02-22T09:58:40.224Z,11.15
2023-02-22T10:01:28.260Z,12.38
2023-02-22T10:04:00.552Z,12.48
2023-02-22T10:06:27.073Z,11.15
2023-02-22T10:08:56.381Z,11.82
2023-02-22T10:11:54.768Z,12.35
2023-02-22T10:14:33.369Z,10.55
2023-02-22T10:17:04.223Z,11.25
2023-02-22T10:19:36.471Z,11.88
2023-02-22T10:22:04.917Z,9.75
2023-02-22T10:24:31.191Z,11.60
2023-02-22T10:26:58.589Z,12.98
2023-02-22T10:29:33.806Z,11.00
2023-02-22T10:32:02.389Z,13.70
2023-02-22T10:34:33.266Z,12.75
2023-02-22T10:37:20.143Z,11.63
2023-02-22T10:39:48.312Z,12.15
2023-02-22T10:42:15.679Z,12.73
2023-02-22T10:44:42.038Z,11.60
2023-02-22T10:47:11.400Z,13.95
2023-02-22T10:49:39.638Z,12.35
2023-02-22T10:52:13.598Z,11.07
2023-02-22T10:54:42.198Z,13.70
2023-02-22T10:57:09.705Z,11.52
2023-02-22T10:59:40.736Z,12.52
2023-02-22T11:02:14.044Z,12.68
2023-02-22T11:04:50.834Z,12.90
2023-02-22T11:07:28.489Z,12.70
2023-02-22T11:09:59.329Z,11.70
2023-02-22T11:14:52.320Z,11.65
2023-02-22T11:17:27.941Z,11.68
2023-02-22T11:19:54.327Z,12.80
2023-02-22T11:22:26.216Z,11.32
2023-02-22T11:24:56.039Z,11.98
2023-02-22T11:27:28.630Z,11.85
2023-02-22T11:29:58.437Z,12.10
2023-02-22T11:32:25.634Z,12.25
2023-02-22T11:35:03.481Z,12.07
2023-02-22T11:37:34.292Z,12.43
2023-02-22T11:40:19.671Z,11.05
2023-02-22T11:42:46.427Z,10.95
2023-02-22T11:45:13.006Z,12.25
2023-02-22T11:47:47.543Z,11.80
2023-02-22T11:50:32.658Z,13.52
2023-02-22T11:53:11.067Z,11.90
2023-02-22T11:56:00.307Z,11.63
2023-02-22T11:58:37.215Z,11.70
2023-02-22T12:01:17.314Z,12.27
2023-02-22T12:04:03.931Z,12.97
2023-02-22T12:06:40.406Z,11.65
2023-02-22T12:09:09.747Z,11.65
2023-02-22T12:11:44.416Z,12.40
2023-02-22T12:14:16.595Z,12.48
2023-02-22T12:16:48.982Z,12.95
2023-02-22T12:19:25.231Z,13.13
2023-02-22T12:21:56.853Z,13.13
2023-02-22T12:24:25.169Z,13.13
2023-02-22T12:27:05.686Z,13.43
2023-02-22T12:29:41.701Z,13.30
2023-02-22T12:32:19.846Z,13.85
2023-02-22T12:34:48.859Z,12.15
2023-02-22T12:37:23.787Z,12.35
2023-02-22T12:39:53.625Z,12.70
2023-02-22T12:42:24.614Z,13.57
2023-02-22T12:44:54.235Z,13.77
2023-02-22T12:47:22.990Z,13.57
2023-02-22T12:49:57.330Z,12.70
2023-02-22T12:52:23.608Z,12.75
2023-02-22T12:54:49.932Z,11.18
2023-02-22T12:57:31.637Z,12.98
2023-02-22T13:00:01.524Z,11.80
2023-02-22T13:02:34.973Z,12.88
2023-02-22T13:05:02.006Z,12.48
2023-02-22T13:07:39.049Z,14.35
2023-02-22T13:10:30.777Z,11.43
2023-02-22T13:13:03.786Z,12.57
2023-02-22T13:15:32.713Z,12.20
2023-02-22T13:18:01.302Z,11.27
2023-02-22T13:20:34.782Z,11.48
2023-02-22T13:23:05.084Z,12.73
2023-02-22T13:25:35.608Z,12.85
2023-02-22T13:28:05.391Z,11.82
2023-02-22T13:30:36.838Z,9.63
2023-02-22T13:33:03.186Z,12.25
2023-02-22T13:35:37.406Z,10.65
2023-02-22T13:38:15.739Z,11.65
2023-02-22T13:40:51.276Z,12.30
2023-02-22T13:43:40.984Z,9.98
2023-02-22T13:46:30.856Z,11.00
2023-02-22T13:49:15.781Z,11.02
2023-02-22T13:51:45.211Z,11.63
2023-02-22T13:54:20.783Z,11.57
2023-02-22T13:56:48.871Z,10.25
2023-02-22T13:59:27.111Z,10.68
2023-02-22T14:01:54.795Z,11.13
2023-02-22T14:04:27.327Z,11.15
2023-02-22T14:07:01.184Z,10.95
2023-02-22T14:09:46.073Z,11.25
2023-02-22T14:12:30.389Z,10.48
2023-02-22T14:15:28.661Z,10.63
2023-02-22T14:18:00.202Z,10.20
2023-02-22T14:20:36.753Z,10.27
2023-02-22T14:23:21.731Z,11.23
2023-02-22T14:25:48.168Z,10.18
2023-02-22T14:28:33.046Z,10.43
2023-02-22T14:31:07.051Z,10.40
2023-02-22T14:34:12.084Z,10.18
2023-02-22T14:36:41.706Z,10.60
2023-02-22T14:39:16.624Z,10.75
2023-02-22T14:41:46.109Z,10.40
2023-02-22T14:44:13.688Z,10.32
2023-02-22T14:46:41.533Z,11.52
2023-02-22T14:49:11.672Z,10.13
2023-02-22T14:51:41.578Z,10.43
2023-02-22T14:54:13.271Z,11.10
2023-02-22T14:56:44.124Z,9.85
2023-02-22T15:01:49.004Z,10.00
2023-02-22T15:04:28.857Z,9.75
2023-02-22T15:06:56.142Z,10.02
2023-02-22T15:09:29.243Z,10.27
2023-02-22T15:12:05.861Z,10.70
2023-02-22T15:14:37.550Z,10.98
2023-02-22T15:17:16.087Z,10.68
2023-02-22T15:19:42.500Z,9.65
2023-02-22T15:22:17.867Z,10.50
2023-02-22T15:24:44.655Z,9.70
2023-02-22T15:27:15.861Z,9.52
2023-02-22T15:29:44.437Z,11.52
2023-02-22T15:32:19.972Z,10.52
2023-02-22T15:34:46.368Z,11.50
2023-02-22T15:37:19.436Z,10.98
2023-02-22T15:39:45.718Z,10.38
2023-02-22T15:42:22.953Z,10.38
2023-02-22T15:44:52.371Z,10.63
2023-02-22T15:47:27.291Z,11.20
2023-02-22T15:50:15.210Z,11.57
2023-02-22T15:52:47.599Z,12.80
2023-02-22T15:55:16.101Z,11.05
2023-02-22T15:57:42.371Z,11.73
2023-02-22T16:00:18.497Z,11.45
2023-02-22T16:02:44.812Z,12.02
2023-02-22T16:05:13.051Z,11.27
2023-02-22T16:07:45.162Z,11.02
2023-02-22T16:10:21.435Z,11.63
2023-02-22T16:12:48.486Z,11.27
2023-02-22T16:15:16.081Z,12.30
2023-02-22T16:17:55.986Z,12.07
2023-02-22T16:20:29.402Z,12.25
2023-02-22T16:22:57.522Z,11.57
2023-02-22T16:25:27.351Z,12.15
2023-02-22T16:27:59.803Z,12.50
2023-02-22T16:30:34.044Z,11.90
2023-02-22T16:33:05.487Z,13.88
2023-02-22T16:35:35.274Z,15.20
2023-02-22T16:38:03.570Z,12.88
2023-02-22T16:40:40.678Z,12.05
2023-02-22T16:43:27.823Z,13.13
2023-02-22T16:45:54.178Z,26.30
2023-02-22T16:48:24.994Z,13.68
2023-02-22T16:50:51.963Z,13.80
2023-02-22T16:53:20.001Z,13.90
2023-02-22T16:55:50.405Z,14.55
2023-02-22T16:58:17.883Z,14.23
2023-02-22T17:00:44.462Z,13.55
2023-02-22T17:03:17.311Z,14.55
2023-02-22T17:05:44.372Z,14.30
2023-02-22T17:08:10.704Z,15.27
2023-02-22T17:10:37.208Z,15.10
2023-02-22T17:13:20.158Z,15.10
2023-02-22T17:15:49.915Z,15.48
2023-02-22T17:18:17.324Z,18.48
2023-02-22T17:20:44.942Z,15.60
2023-02-22T17:23:12.291Z,16.58
2023-02-22T17:25:39.996Z,17.15
2023-02-22T17:28:07.040Z,18.33
2023-02-22T17:30:35.721Z,18.85
2023-02-22T17:33:03.641Z,17.52
2023-02-22T17:35:35.606Z,17.45
2023-02-22T17:38:06.170Z,18.13
2023-02-22T17:40:36.327Z,19.30
2023-02-22T17:43:02.892Z,96.23
2023-02-22T17:45:29.675Z,23.02
2023-02-22T17:47:58.118Z,22.00
2023-02-22T17:50:24.516Z,23.95
2023-02-22T17:52:51.547Z,20.63
2023-02-22T17:55:19.132Z,21.52
2023-02-22T17:57:45.614Z,21.38
2023-02-22T18:00:23.069Z,22.25
2023-02-22T18:02:50.397Z,22.13
2023-02-22T18:05:17.435Z,22.23
2023-02-22T18:07:44.509Z,22.20
2023-02-22T18:10:12.325Z,22.63
2023-02-22T18:12:39.325Z,22.25
2023-02-22T18:15:06.345Z,23.73
2023-02-22T18:17:32.648Z,24.45
2023-02-22T18:19:58.893Z,22.95
2023-02-22T18:22:25.164Z,25.55
2023-02-22T18:24:57.688Z,24.73
2023-02-22T18:27:25.935Z,25.27
2023-02-22T18:29:52.206Z,24.88
2023-02-22T18:32:18.548Z,24.83
2023-02-22T18:34:45.468Z,23.75
2023-02-22T18:37:11.708Z,24.60
2023-02-22T18:39:42.743Z,24.90
2023-02-22T18:42:11.296Z,27.63
2023-02-22T18:44:37.699Z,27.13
2023-02-22T18:47:04.008Z,27.42
2023-02-22T18:49:30.332Z,28.02
2023-02-22T18:51:56.598Z,27.98
2023-02-22T18:54:22.885Z,27.45
2023-02-22T18:56:49.140Z,26.83
2023-02-22T18:59:15.424Z,28.17
2023-02-22T19:01:48.584Z,27.15
2023-02-22T19:04:15.444Z,28.58
2023-02-22T19:06:43.088Z,28.52
2023-02-22T19:09:09.417Z,27.08
2023-02-22T19:11:36.103Z,28.15
2023-02-22T19:14:05.453Z,28.85
2023-02-22T19:16:32.346Z,30.88
2023-02-22T19:18:58.795Z,31.70
2023-02-22T19:21:26.092Z,29.23
2023-02-22T19:23:53.129Z,30.55
2023-02-22T19:26:23.483Z,30.08
2023-02-22T19:28:50.753Z,29.67
2023-02-22T19:31:19.261Z,29.92
2023-02-22T19:33:47.877Z,29.00
2023-02-22T19:36:14.558Z,30.08
2023-02-22T19:38:41.419Z,31.23
2023-02-22T19:41:10.182Z,29.90
2023-02-22T19:43:36.763Z,30.02
2023-02-22T19:46:03.936Z,29.88
2023-02-22T19:48:30.191Z,32.05
2023-02-22T19:51:01.509Z,29.17
2023-02-22T19:53:27.759Z,29.63
2023-02-22T19:55:54.251Z,30.77
2023-02-22T19:58:20.588Z,30.42
2023-02-22T20:00:46.841Z,29.45
2023-02-22T20:03:13.304Z,28.73
2023-02-22T20:05:40.321Z,29.13
2023-02-22T20:08:06.820Z,30.17
2023-02-22T20:10:34.516Z,28.33
2023-02-22T20:13:01.489Z,28.95
2023-02-22T20:15:28.005Z,26.38
2023-02-22T20:17:54.996Z,27.55
2023-02-22T20:20:24.177Z,28.73
2023-02-22T20:22:50.859Z,26.98
2023-02-22T20:25:17.214Z,26.70
2023-02-22T20:27:43.660Z,26.38
2023-02-22T20:30:10.448Z,25.70
2023-02-22T20:32:37.777Z,26.65
2023-02-22T20:35:04.703Z,26.52
2023-02-22T20:37:31.590Z,25.75
2023-02-22T20:39:59.774Z,26.70
2023-02-22T20:42:26.430Z,27.10
2023-02-22T20:44:52.806Z,26.90
2023-02-22T20:47:19.213Z,27.05
2023-02-22T20:49:45.474Z,28.48
2023-02-22T20:52:11.762Z,27.50
2023-02-22T20:54:38.145Z,28.55
2023-02-22T20:57:07.875Z,28.08
2023-02-22T20:59:34.154Z,26.65
2023-02-22T21:02:00.507Z,27.70
2023-02-22T21:04:32.824Z,27.85
2023-02-22T21:07:03.123Z,29.23
2023-02-22T21:09:29.695Z,28.65
2023-02-22T21:11:55.980Z,25.50
2023-02-22T21:14:24.247Z,26.75
2023-02-22T21:16:51.312Z,26.42
2023-02-22T21:19:25.427Z,26.20
2023-02-22T21:21:54.794Z,25.73
2023-02-22T21:24:22.150Z,27.02
2023-02-22T21:26:48.368Z,27.15
2023-02-22T21:29:14.632Z,26.55
2023-02-22T21:31:41.132Z,26.08
2023-02-22T21:34:10.574Z,26.90
2023-02-22T21:36:38.675Z,26.90
2023-02-22T21:39:10.266Z,27.42
2023-02-22T21:41:39.189Z,29.92
2023-02-22T21:44:06.812Z,26.58
2023-02-22T21:46:33.066Z,26.73
2023-02-22T21:48:59.351Z,28.85
2023-02-22T21:51:26.867Z,26.95
2023-02-22T21:53:54.015Z,26.98
2023-02-22T21:56:24.056Z,26.80
2023-02-22T21:58:54.039Z,27.30
2023-02-22T22:01:20.637Z,27.00
2023-02-22T22:03:47.025Z,27.50
2023-02-22T22:06:13.840Z,25.60
2023-02-22T22:08:41.237Z,24.90
2023-02-22T22:11:09.202Z,24.50
2023-02-22T22:13:36.594Z,23.85
2023-02-22T22:16:04.142Z,24.13
2023-02-22T22:18:30.729Z,23.63
2023-02-22T22:20:57.050Z,23.55
2023-02-22T22:23:23.301Z,23.30
2023-02-22T22:25:51.238Z,23.67
2023-02-22T22:28:17.490Z,22.50
2023-02-22T22:30:43.834Z,22.10
2023-02-22T22:33:11.248Z,23.90
2023-02-22T22:35:41.823Z,24.42
2023-02-22T22:38:09.423Z,25.17
2023-02-22T22:40:35.958Z,25.42
2023-02-22T22:43:02.185Z,25.50
2023-02-22T22:45:28.530Z,25.33
2023-02-22T22:47:54.792Z,25.17
2023-02-22T22:50:26.424Z,26.10
2023-02-22T22:52:55.383Z,26.50
2023-02-22T22:55:24.146Z,24.38
2023-02-22T22:57:50.944Z,24.15
2023-02-22T23:00:34.765Z,24.73
2023-02-22T23:03:01.087Z,24.52
2023-02-22T23:05:30.371Z,26.00
2023-02-22T23:07:56.979Z,25.40
2023-02-22T23:10:27.100Z,24.20
2023-02-22T23:12:54.324Z,25.17
2023-02-22T23:15:20.693Z,25.02
2023-02-22T23:17:46.976Z,24.30
2023-02-22T23:20:13.419Z,23.45
2023-02-22T23:22:47.071Z,25.10
2023-02-22T23:25:15.659Z,25.00
2023-02-22T23:27:42.679Z,25.35
2023-02-22T23:30:14.899Z,24.45
2023-02-22T23:32:42.392Z,26.55
2023-02-22T23:35:11.264Z,26.48
2023-02-22T23:37:39.763Z,26.15
2023-02-22T23:40:16.752Z,25.75
2023-02-22T23:42:46.100Z,25.58
2023-02-22T23:45:22.384Z,22.98
2023-02-22T23:47:54.666Z,25.00
2023-02-22T23:50:23.023Z,24.70
2023-02-22T23:52:50.742Z,24.73
2023-02-22T23:55:20.744Z,23.88
2023-02-22T23:57:47.471Z,24.63
